Time;durP1;ratioP1;P1;durP2;ratioP2;P2;SDS_P1;SDS_P2;PMS_P1;PMS_P2;Temp;Humidity;BMP_temperature;BMP_pressure;BME280_temperature;BME280_humidity;BME280_pressure;Samples;Min_cycle;Max_cycle;Signal;HPM_P1;HPM_P2
2023/01/20 00:02:15;;;;;;;6.85;3.38;;;;;;;;;;4999158;28;20046;-81
2023/01/20 00:04:41;;;;;;;5.93;3.78;;;;;;;;;;4998442;28;20164;-81
2023/01/20 00:07:07;;;;;;;5.13;3.00;;;;;;;;;;4998129;28;20391;-81
2023/01/20 00:09:33;;;;;;;6.05;3.33;;;;;;;;;;4998948;28;20021;-81
2023/01/20 00:11:59;;;;;;;5.63;3.17;;;;;;;;;;4998547;28;20045;-81
2023/01/20 00:14:26;;;;;;;5.45;3.13;;;;;;;;;;4998248;28;20419;-81
2023/01/20 00:16:52;;;;;;;5.07;2.50;;;;;;;;;;4998107;28;20057;-81
2023/01/20 00:19:18;;;;;;;5.10;2.95;;;;;;;;;;4998495;28;20022;-81
2023/01/20 00:21:44;;;;;;;4.55;2.83;;;;;;;;;;4997979;28;20040;-81
2023/01/20 00:24:10;;;;;;;7.57;2.78;;;;;;;;;;4998513;28;20034;-81
2023/01/20 00:26:36;;;;;;;4.13;2.65;;;;;;;;;;4998980;28;20028;-81
2023/01/20 00:29:02;;;;;;;5.15;2.42;;;;;;;;;;4997966;28;20435;-81
2023/01/20 00:31:29;;;;;;;6.30;2.42;;;;;;;;;;4998807;28;20030;-81
2023/01/20 00:33:57;;;;;;;7.03;2.83;;;;;;;;;;4998196;28;20075;-81
2023/01/20 00:36:24;;;;;;;4.57;2.40;;;;;;;;;;4998954;28;20026;-81
2023/01/20 00:38:50;;;;;;;3.58;2.30;;;;;;;;;;4998094;28;20482;-81
2023/01/20 00:41:17;;;;;;;5.10;2.22;;;;;;;;;;4998021;28;20360;-81
2023/01/20 00:43:43;;;;;;;4.43;1.92;;;;;;;;;;4997802;28;20025;-81
2023/01/20 00:46:10;;;;;;;4.72;2.67;;;;;;;;;;4997955;28;20025;-80
2023/01/20 00:48:36;;;;;;;2.83;1.95;;;;;;;;;;4998063;28;20121;-81
2023/01/20 00:51:03;;;;;;;3.08;2.05;;;;;;;;;;4997659;28;20114;-81
2023/01/20 00:53:29;;;;;;;3.03;2.08;;;;;;;;;;4998115;28;20022;-81
2023/01/20 00:55:55;;;;;;;6.18;2.00;;;;;;;;;;4997512;28;20022;-81
2023/01/20 00:58:21;;;;;;;2.42;1.63;;;;;;;;;;4997399;28;20026;-81
2023/01/20 01:00:48;;;;;;;3.42;2.20;;;;;;;;;;4997258;28;20034;-81
2023/01/20 01:03:14;;;;;;;2.38;1.75;;;;;;;;;;4997325;28;20465;-81
2023/01/20 01:05:40;;;;;;;2.85;1.80;;;;;;;;;;4997715;28;20022;-81
2023/01/20 01:08:06;;;;;;;2.58;1.80;;;;;;;;;;4997322;28;20096;-81
2023/01/20 01:10:32;;;;;;;4.13;1.90;;;;;;;;;;4997593;28;20053;-81
2023/01/20 01:12:59;;;;;;;3.13;1.48;;;;;;;;;;4997460;28;20117;-81
2023/01/20 01:15:25;;;;;;;3.47;1.60;;;;;;;;;;5014443;28;20049;-81
2023/01/20 01:17:51;;;;;;;4.35;1.75;;;;;;;;;;4998271;28;20057;-81
2023/01/20 01:20:17;;;;;;;4.88;1.70;;;;;;;;;;4996561;28;20033;-81
2023/01/20 01:22:43;;;;;;;5.18;1.60;;;;;;;;;;4996985;28;20030;-81
2023/01/20 01:25:09;;;;;;;5.03;1.65;;;;;;;;;;4997029;28;20032;-81
2023/01/20 01:27:36;;;;;;;4.22;1.60;;;;;;;;;;4997271;28;20072;-81
2023/01/20 01:30:02;;;;;;;2.20;1.77;;;;;;;;;;4997055;28;20125;-80
2023/01/20 01:32:28;;;;;;;3.45;2.08;;;;;;;;;;4997396;28;20487;-80
2023/01/20 01:34:54;;;;;;;4.25;2.25;;;;;;;;;;4997378;28;20108;-81
2023/01/20 01:37:20;;;;;;;4.15;2.05;;;;;;;;;;4997322;28;20080;-81
2023/01/20 01:39:46;;;;;;;5.22;2.33;;;;;;;;;;4996951;28;20117;-81
2023/01/20 01:42:12;;;;;;;2.92;2.10;;;;;;;;;;5014553;28;20392;-81
2023/01/20 01:44:58;;;;;;;2.40;2.08;;;;;;;;;;5014373;28;20102;-81
2023/01/20 01:47:24;;;;;;;2.90;1.90;;;;;;;;;;4996717;28;20030;-80
2023/01/20 01:49:51;;;;;;;4.68;2.40;;;;;;;;;;4996875;28;20030;-80
2023/01/20 01:52:19;;;;;;;5.25;2.25;;;;;;;;;;5014419;28;20475;-81
2023/01/20 01:54:47;;;;;;;5.47;2.42;;;;;;;;;;4996745;28;20022;-81
2023/01/20 01:57:14;;;;;;;5.07;2.78;;;;;;;;;;4996659;28;20033;-81
2023/01/20 01:59:40;;;;;;;5.28;2.28;;;;;;;;;;4996888;28;20030;-81
2023/01/20 02:02:06;;;;;;;3.42;2.42;;;;;;;;;;4996317;28;20068;-81
2023/01/20 02:04:33;;;;;;;3.05;2.20;;;;;;;;;;4996932;28;20033;-81
2023/01/20 02:07:02;;;;;;;6.80;2.40;;;;;;;;;;4996720;28;20022;-81
2023/01/20 02:09:29;;;;;;;5.55;2.35;;;;;;;;;;4997088;28;20069;-81
2023/01/20 02:11:56;;;;;;;4.38;2.65;;;;;;;;;;4996553;28;20083;-80
2023/01/20 02:14:24;;;;;;;6.13;2.33;;;;;;;;;;4996742;28;20072;-80
2023/01/20 02:17:11;;;;;;;3.30;2.17;;;;;;;;;;4996212;28;20053;-81
2023/01/20 02:19:37;;;;;;;5.38;2.78;;;;;;;;;;4996275;28;20034;-80
2023/01/20 02:22:18;;;;;;;3.55;2.25;;;;;;;;;;4996842;28;20045;-81
2023/01/20 02:24:44;;;;;;;5.50;2.70;;;;;;;;;;4996790;28;20098;-80
2023/01/20 02:27:28;;;;;;;3.40;2.63;;;;;;;;;;4996334;28;20014;-81
2023/01/20 02:30:04;;;;;;;4.00;2.35;;;;;;;;;;4997010;28;20026;-81
2023/01/20 02:32:30;;;;;;;4.25;2.53;;;;;;;;;;5000614;28;20025;-81
2023/01/20 02:35:00;;;;;;;6.82;2.67;;;;;;;;;;5000889;28;20025;-81
2023/01/20 02:37:28;;;;;;;6.47;3.20;;;;;;;;;;5018589;28;20028;-81
2023/01/20 02:40:00;;;;;;;6.10;2.90;;;;;;;;;;5000466;28;20041;-81
2023/01/20 02:42:38;;;;;;;6.03;3.33;;;;;;;;;;4999964;28;20037;-80
2023/01/20 02:45:08;;;;;;;6.43;3.63;;;;;;;;;;4999911;28;20372;-80
2023/01/20 02:47:58;;;;;;;9.68;3.80;;;;;;;;;;4999927;28;20041;-81
2023/01/20 02:50:27;;;;;;;7.22;3.97;;;;;;;;;;4999930;28;20117;-81
2023/01/20 02:52:54;;;;;;;6.35;3.88;;;;;;;;;;5017929;28;20026;-81
2023/01/20 02:55:34;;;;;;;7.35;4.22;;;;;;;;;;4999702;28;20062;-81
2023/01/20 02:58:04;;;;;;;6.40;3.80;;;;;;;;;;4999966;28;20030;-80
2023/01/20 03:00:39;;;;;;;8.20;4.53;;;;;;;;;;4999793;28;20467;-81
2023/01/20 03:03:08;;;;;;;6.90;4.53;;;;;;;;;;4999998;28;20042;-81
2023/01/20 03:05:36;;;;;;;7.40;4.82;;;;;;;;;;4999755;28;20117;-81
2023/01/20 03:08:05;;;;;;;7.80;4.18;;;;;;;;;;5000580;28;20084;-81
2023/01/20 03:10:33;;;;;;;7.35;4.65;;;;;;;;;;5000550;28;20117;-81
2023/01/20 03:13:06;;;;;;;8.32;4.68;;;;;;;;;;4999829;28;20056;-81
2023/01/20 03:15:41;;;;;;;8.02;5.05;;;;;;;;;;5000089;28;20068;-81
2023/01/20 03:18:07;;;;;;;9.48;5.00;;;;;;;;;;4999866;28;20022;-81
2023/01/20 03:20:52;;;;;;;8.65;5.28;;;;;;;;;;4999564;28;20024;-81
2023/01/20 03:23:18;;;;;;;9.07;5.03;;;;;;;;;;4999431;28;20034;-81
2023/01/20 03:25:45;;;;;;;9.27;5.15;;;;;;;;;;4999346;28;20037;-81
2023/01/20 03:28:11;;;;;;;8.65;5.00;;;;;;;;;;5000057;28;20030;-81
2023/01/20 03:30:37;;;;;;;9.48;5.60;;;;;;;;;;5016986;28;20018;-81
2023/01/20 03:33:03;;;;;;;9.55;5.82;;;;;;;;;;4999296;28;20037;-81
2023/01/20 03:35:30;;;;;;;10.90;5.35;;;;;;;;;;4999549;28;20371;-81
2023/01/20 03:37:56;;;;;;;9.43;5.30;;;;;;;;;;5000243;28;20069;-81
2023/01/20 03:40:25;;;;;;;11.32;6.00;;;;;;;;;;4999301;28;20080;-81
2023/01/20 03:42:54;;;;;;;10.90;5.68;;;;;;;;;;4998269;28;20042;-81
2023/01/20 03:45:53;;;;;;;8.75;5.97;;;;;;;;;;4999118;28;20033;-80
2023/01/20 03:48:33;;;;;;;12.25;6.18;;;;;;;;;;4956935;28;20041;-81
2023/01/20 03:51:02;;;;;;;10.10;6.18;;;;;;;;;;5017125;28;20057;-81
2023/01/20 03:53:33;;;;;;;10.23;5.88;;;;;;;;;;4998856;28;20030;-81
2023/01/20 03:56:05;;;;;;;12.07;6.32;;;;;;;;;;4999024;28;20022;-80
2023/01/20 03:58:36;;;;;;;10.63;6.55;;;;;;;;;;4998874;28;20038;-81
2023/01/20 04:01:07;;;;;;;11.70;6.78;;;;;;;;;;4998587;28;20028;-80
2023/01/20 04:03:34;;;;;;;13.70;7.28;;;;;;;;;;4999927;28;20038;-81
2023/01/20 04:06:03;;;;;;;12.73;6.65;;;;;;;;;;4999295;28;20225;-81
2023/01/20 04:08:31;;;;;;;12.27;7.05;;;;;;;;;;4999964;28;20088;-81
2023/01/20 04:10:59;;;;;;;13.98;6.50;;;;;;;;;;4999060;28;20501;-81
2023/01/20 04:13:25;;;;;;;12.77;7.10;;;;;;;;;;4998734;28;20030;-81
2023/01/20 04:15:51;;;;;;;10.73;6.72;;;;;;;;;;4998138;28;20056;-81
2023/01/20 04:18:18;;;;;;;13.35;7.03;;;;;;;;;;4999309;28;20022;-81
2023/01/20 04:20:45;;;;;;;13.30;7.07;;;;;;;;;;5016139;28;20021;-81
2023/01/20 04:23:15;;;;;;;13.18;6.97;;;;;;;;;;4998666;28;20030;-80
2023/01/20 04:25:42;;;;;;;12.95;6.53;;;;;;;;;;4998260;28;20030;-81
2023/01/20 04:28:07;;;;;;;13.30;6.70;;;;;;;;;;4998438;28;20467;-81
2023/01/20 04:30:33;;;;;;;12.43;6.97;;;;;;;;;;4999076;28;20022;-81
2023/01/20 04:32:59;;;;;;;12.57;7.10;;;;;;;;;;4998111;28;20032;-81
2023/01/20 04:35:25;;;;;;;14.85;7.18;;;;;;;;;;4998313;28;20117;-81
2023/01/20 04:37:51;;;;;;;13.48;6.60;;;;;;;;;;4997891;28;20467;-81
2023/01/20 04:40:17;;;;;;;13.05;7.05;;;;;;;;;;4998346;28;20026;-80
2023/01/20 04:42:43;;;;;;;14.55;7.20;;;;;;;;;;4998481;28;20030;-80
2023/01/20 04:45:14;;;;;;;14.23;7.13;;;;;;;;;;4997913;28;20026;-80
2023/01/20 04:47:39;;;;;;;12.00;6.47;;;;;;;;;;4998307;28;20022;-80
2023/01/20 04:50:06;;;;;;;17.25;7.68;;;;;;;;;;4998128;28;20364;-80
2023/01/20 04:52:32;;;;;;;17.08;7.05;;;;;;;;;;4997901;28;20034;-80
2023/01/20 04:55:03;;;;;;;13.30;7.18;;;;;;;;;;4997624;28;20022;-80
2023/01/20 04:57:29;;;;;;;21.58;8.27;;;;;;;;;;4997899;28;20041;-81
2023/01/20 04:59:55;;;;;;;67.28;11.63;;;;;;;;;;4997772;28;20030;-81
2023/01/20 05:02:21;;;;;;;68.80;13.05;;;;;;;;;;4998424;28;20129;-81
2023/01/20 05:04:47;;;;;;;34.15;10.25;;;;;;;;;;4997856;28;20022;-81
2023/01/20 05:07:13;;;;;;;17.20;8.32;;;;;;;;;;4998142;28;20022;-81
2023/01/20 05:09:39;;;;;;;25.95;8.73;;;;;;;;;;4997615;28;20030;-80
2023/01/20 05:12:05;;;;;;;55.40;11.35;;;;;;;;;;5015471;28;20022;-80
2023/01/20 05:14:31;;;;;;;85.75;14.48;;;;;;;;;;4998342;28;20129;-80
2023/01/20 05:16:57;;;;;;;63.22;11.70;;;;;;;;;;4997175;28;20092;-80
2023/01/20 05:19:23;;;;;;;48.25;10.65;;;;;;;;;;5014380;28;20026;-78
2023/01/20 05:21:49;;;;;;;23.40;9.70;;;;;;;;;;5014312;28;20037;-79
2023/01/20 05:24:15;;;;;;;28.75;11.45;;;;;;;;;;4996840;28;20383;-79
2023/01/20 05:26:41;;;;;;;25.42;10.48;;;;;;;;;;5014731;28;20186;-79
2023/01/20 05:29:13;;;;;;;30.83;11.27;;;;;;;;;;4996673;28;20030;-80
2023/01/20 05:31:42;;;;;;;33.40;12.95;;;;;;;;;;4996929;28;20037;-81
2023/01/20 05:34:08;;;;;;;40.53;14.15;;;;;;;;;;4996642;28;20112;-81
2023/01/20 05:36:34;;;;;;;45.70;14.13;;;;;;;;;;4981301;28;20048;-81
2023/01/20 05:39:00;;;;;;;54.65;16.52;;;;;;;;;;4995030;28;20033;-81
2023/01/20 05:41:26;;;;;;;44.75;14.80;;;;;;;;;;4977482;28;20031;-80
2023/01/20 05:43:52;;;;;;;52.25;16.23;;;;;;;;;;4977881;28;20160;-80
2023/01/20 05:46:19;;;;;;;56.25;16.50;;;;;;;;;;4977732;28;20029;-80
2023/01/20 05:48:45;;;;;;;43.00;16.52;;;;;;;;;;5002754;28;20029;-80
2023/01/20 05:51:10;;;;;;;53.30;18.08;;;;;;;;;;5005112;28;20026;-81
2023/01/20 05:53:36;;;;;;;105.57;22.17;;;;;;;;;;4990799;28;20026;-81
2023/01/20 05:56:04;;;;;;;73.47;19.13;;;;;;;;;;4996860;28;20022;-81
2023/01/20 05:58:30;;;;;;;52.00;17.35;;;;;;;;;;4996965;28;20076;-80
2023/01/20 06:01:03;;;;;;;51.80;17.55;;;;;;;;;;4997033;28;20030;-80
2023/01/20 06:03:29;;;;;;;47.45;17.55;;;;;;;;;;4996861;28;20092;-81
2023/01/20 06:06:02;;;;;;;60.13;18.75;;;;;;;;;;4996585;28;20391;-81
2023/01/20 06:08:28;;;;;;;56.97;18.15;;;;;;;;;;4996813;28;20459;-81
2023/01/20 06:10:54;;;;;;;62.15;19.52;;;;;;;;;;5014401;28;20026;-81
2023/01/20 06:13:20;;;;;;;54.40;18.00;;;;;;;;;;4996516;28;20033;-81
2023/01/20 06:15:55;;;;;;;53.08;19.17;;;;;;;;;;5013798;28;20026;-81
2023/01/20 06:18:22;;;;;;;54.22;18.17;;;;;;;;;;4998199;28;20033;-81
2023/01/20 06:20:48;;;;;;;57.25;19.25;;;;;;;;;;4997380;28;20026;-81
2023/01/20 06:23:14;;;;;;;57.97;18.33;;;;;;;;;;4997722;28;20030;-81
2023/01/20 06:25:40;;;;;;;60.70;19.90;;;;;;;;;;4998232;28;20022;-81
2023/01/20 06:28:07;;;;;;;61.75;19.13;;;;;;;;;;4992120;28;20027;-81
2023/01/20 06:30:33;;;;;;;59.40;19.08;;;;;;;;;;4995493;28;20073;-81
2023/01/20 06:32:59;;;;;;;61.83;19.92;;;;;;;;;;4978759;28;20041;-81
2023/01/20 06:35:25;;;;;;;67.70;20.15;;;;;;;;;;4978750;28;20026;-81
2023/01/20 06:37:51;;;;;;;54.17;19.90;;;;;;;;;;4978523;28;20022;-81
2023/01/20 06:40:17;;;;;;;59.30;19.83;;;;;;;;;;4996185;28;20038;-81
2023/01/20 06:42:43;;;;;;;60.58;20.05;;;;;;;;;;4978390;28;20396;-81
2023/01/20 06:45:09;;;;;;;51.63;18.08;;;;;;;;;;4977871;28;20051;-81
2023/01/20 06:47:35;;;;;;;63.70;21.02;;;;;;;;;;4980650;28;20014;-81
2023/01/20 06:50:01;;;;;;;68.55;20.95;;;;;;;;;;4982281;28;20096;-81
2023/01/20 06:52:27;;;;;;;60.78;20.23;;;;;;;;;;4993644;28;20022;-81
2023/01/20 06:54:53;;;;;;;66.70;21.75;;;;;;;;;;4984449;28;20030;-81
2023/01/20 06:57:19;;;;;;;65.47;22.40;;;;;;;;;;4978461;28;20026;-81
2023/01/20 06:59:45;;;;;;;66.53;21.80;;;;;;;;;;4978028;28;20035;-82
2023/01/20 07:02:11;;;;;;;71.85;22.15;;;;;;;;;;4988821;28;20048;-81
2023/01/20 07:04:37;;;;;;;66.85;23.55;;;;;;;;;;4978179;28;20026;-82
2023/01/20 07:07:03;;;;;;;63.90;21.70;;;;;;;;;;4983992;28;20030;-81
2023/01/20 07:09:29;;;;;;;59.03;20.92;;;;;;;;;;4986218;28;20026;-81
2023/01/20 07:11:55;;;;;;;68.13;23.70;;;;;;;;;;5004626;28;20026;-81
2023/01/20 07:14:21;;;;;;;71.82;23.23;;;;;;;;;;4985447;28;20435;-81
2023/01/20 07:16:47;;;;;;;69.13;23.40;;;;;;;;;;4988102;28;20042;-81
2023/01/20 07:19:14;;;;;;;65.53;21.98;;;;;;;;;;4989046;28;20072;-81
2023/01/20 07:21:39;;;;;;;64.18;22.55;;;;;;;;;;4991258;28;20121;-81
2023/01/20 07:24:06;;;;;;;68.45;22.80;;;;;;;;;;4991953;28;20096;-82
2023/01/20 07:26:32;;;;;;;65.13;22.10;;;;;;;;;;4990657;28;20022;-81
2023/01/20 07:28:58;;;;;;;58.13;20.67;;;;;;;;;;4992003;28;20026;-81
2023/01/20 07:31:26;;;;;;;54.83;19.70;;;;;;;;;;4983934;28;20035;-81
2023/01/20 07:33:56;;;;;;;59.45;21.73;;;;;;;;;;5008452;28;20029;-81
2023/01/20 07:36:24;;;;;;;57.80;22.70;;;;;;;;;;5009593;28;20037;-82
2023/01/20 07:38:51;;;;;;;55.03;21.00;;;;;;;;;;4991502;28;20045;-81
2023/01/20 07:41:18;;;;;;;63.60;21.77;;;;;;;;;;4990792;28;20024;-81
2023/01/20 07:43:51;;;;;;;61.70;21.52;;;;;;;;;;4991434;28;20072;-81
2023/01/20 07:46:17;;;;;;;56.28;20.33;;;;;;;;;;4987663;28;20018;-81
2023/01/20 07:48:43;;;;;;;60.95;21.05;;;;;;;;;;4991629;28;20034;-81
2023/01/20 07:51:10;;;;;;;62.15;21.25;;;;;;;;;;4991633;28;20026;-81
2023/01/20 07:53:47;;;;;;;70.22;22.85;;;;;;;;;;4989722;28;20479;-81
2023/01/20 07:56:33;;;;;;;62.03;22.42;;;;;;;;;;5005877;28;20030;-79
2023/01/20 07:58:59;;;;;;;60.80;21.80;;;;;;;;;;4989942;28;20395;-81
2023/01/20 08:01:26;;;;;;;57.80;20.42;;;;;;;;;;4988360;28;20034;-81
2023/01/20 08:03:52;;;;;;;72.93;24.13;;;;;;;;;;4992661;28;20022;-81
2023/01/20 08:06:19;;;;;;;63.78;22.98;;;;;;;;;;4991510;28;20022;-81
2023/01/20 08:08:50;;;;;;;63.50;21.33;;;;;;;;;;4991913;28;20032;-81
2023/01/20 08:11:17;;;;;;;63.55;22.13;;;;;;;;;;5018868;28;20080;-81
2023/01/20 08:13:43;;;;;;;70.72;23.48;;;;;;;;;;4999246;28;20479;-81
2023/01/20 08:16:25;;;;;;;68.80;24.05;;;;;;;;;;5018190;28;20408;-81
2023/01/20 08:18:53;;;;;;;64.10;21.58;;;;;;;;;;4961052;28;20097;-81
2023/01/20 08:21:29;;;;;;;54.15;19.45;;;;;;;;;;4973449;28;20113;-81
2023/01/20 08:24:14;;;;;;;68.65;23.27;;;;;;;;;;5016592;28;20034;-81
2023/01/20 08:26:40;;;;;;;71.43;22.73;;;;;;;;;;4959349;28;20030;-81
2023/01/20 08:29:08;;;;;;;72.57;23.40;;;;;;;;;;4975224;28;20029;-81
2023/01/20 08:31:34;;;;;;;64.47;22.08;;;;;;;;;;4959639;28;20058;-81
2023/01/20 08:34:00;;;;;;;69.65;23.83;;;;;;;;;;4967036;28;20019;-81
2023/01/20 08:36:28;;;;;;;67.57;22.23;;;;;;;;;;4977595;28;20029;-81
2023/01/20 08:38:55;;;;;;;70.97;23.05;;;;;;;;;;4975666;28;20026;-81
2023/01/20 08:41:23;;;;;;;60.75;20.63;;;;;;;;;;4976111;28;20195;-82
2023/01/20 08:43:49;;;;;;;59.75;21.52;;;;;;;;;;4975616;28;20544;-82
2023/01/20 08:46:15;;;;;;;46.28;16.75;;;;;;;;;;5012968;28;20033;-82
2023/01/20 08:48:42;;;;;;;71.80;22.48;;;;;;;;;;5006586;28;20483;-82
2023/01/20 08:51:10;;;;;;;71.63;23.10;;;;;;;;;;4985800;28;20090;-82
2023/01/20 08:53:36;;;;;;;66.60;22.55;;;;;;;;;;4960212;28;20038;-83
2023/01/20 08:56:03;;;;;;;64.93;23.92;;;;;;;;;;4986149;28;20104;-82
2023/01/20 08:58:29;;;;;;;64.35;21.48;;;;;;;;;;4987914;28;20479;-83
2023/01/20 09:00:55;;;;;;;71.15;23.58;;;;;;;;;;4983322;28;20026;-82
2023/01/20 09:03:22;;;;;;;64.72;21.55;;;;;;;;;;4970852;28;20090;-82
2023/01/20 09:05:48;;;;;;;64.93;21.85;;;;;;;;;;4959688;28;20023;-82
2023/01/20 09:08:16;;;;;;;71.68;22.60;;;;;;;;;;4977727;28;20030;-82
2023/01/20 09:10:42;;;;;;;67.72;21.70;;;;;;;;;;4960522;28;20396;-82
2023/01/20 09:13:08;;;;;;;58.40;21.08;;;;;;;;;;4977615;28;20050;-82
2023/01/20 09:15:34;;;;;;;60.03;21.90;;;;;;;;;;4976239;28;20029;-82
2023/01/20 09:18:00;;;;;;;58.38;19.95;;;;;;;;;;4972782;28;20050;-82
2023/01/20 09:20:27;;;;;;;60.55;21.38;;;;;;;;;;4993481;28;20136;-82
2023/01/20 09:22:54;;;;;;;58.13;21.25;;;;;;;;;;5015008;28;20464;-82
2023/01/20 09:25:20;;;;;;;66.30;21.65;;;;;;;;;;5003962;28;20527;-82
2023/01/20 09:27:46;;;;;;;64.22;20.30;;;;;;;;;;5031344;28;20017;-83
2023/01/20 09:30:12;;;;;;;60.80;21.77;;;;;;;;;;5016839;28;20052;-83
2023/01/20 09:32:38;;;;;;;63.25;20.67;;;;;;;;;;5011342;28;20026;-83
2023/01/20 09:35:04;;;;;;;59.80;19.10;;;;;;;;;;4995322;28;20030;-83
2023/01/20 09:46:12;;;;;;;61.85;21.15;;;;;;;;;;4999406;28;20491;-83
2023/01/20 09:54:25;;;;;;;59.72;19.52;;;;;;;;;;5028151;28;20129;-83
2023/01/20 09:56:53;;;;;;;61.55;20.17;;;;;;;;;;5016105;28;20021;-83
2023/01/20 09:59:23;;;;;;;59.35;20.08;;;;;;;;;;5033988;28;20654;-83
2023/01/20 10:01:51;;;;;;;55.47;19.60;;;;;;;;;;5023529;28;20087;-83
2023/01/20 10:04:25;;;;;;;60.22;20.73;;;;;;;;;;4996669;28;20169;-83
2023/01/20 10:06:57;;;;;;;63.58;20.35;;;;;;;;;;5014675;28;20026;-83
2023/01/20 10:09:46;;;;;;;64.45;21.13;;;;;;;;;;4983762;28;20033;-83
2023/01/20 10:12:15;;;;;;;68.15;21.45;;;;;;;;;;4977170;28;20042;-83
2023/01/20 10:14:44;;;;;;;66.63;22.17;;;;;;;;;;5013294;28;20029;-83
2023/01/20 10:17:10;;;;;;;60.80;21.00;;;;;;;;;;5022713;28;20839;-83
2023/01/20 10:19:41;;;;;;;67.85;21.02;;;;;;;;;;4997091;28;20125;-83
2023/01/20 10:22:18;;;;;;;53.22;17.92;;;;;;;;;;5015258;28;20030;-83
2023/01/20 10:24:54;;;;;;;58.85;19.70;;;;;;;;;;5008316;28;20034;-82
2023/01/20 10:27:22;;;;;;;61.92;19.77;;;;;;;;;;4985152;28;20026;-83
2023/01/20 10:29:51;;;;;;;57.45;19.40;;;;;;;;;;4996868;28;20032;-83
2023/01/20 10:32:37;;;;;;;64.93;20.07;;;;;;;;;;4996567;28;20072;-83
2023/01/20 10:35:08;;;;;;;56.88;18.45;;;;;;;;;;5014381;28;20888;-83
2023/01/20 10:37:34;;;;;;;58.67;20.67;;;;;;;;;;4999228;28;20107;-83
2023/01/20 10:40:16;;;;;;;57.75;21.35;;;;;;;;;;4996535;28;20657;-83
2023/01/20 10:42:47;;;;;;;53.33;18.48;;;;;;;;;;4996753;28;20042;-83
2023/01/20 10:45:36;;;;;;;55.78;17.92;;;;;;;;;;5014224;28;20029;-83
2023/01/20 10:48:09;;;;;;;50.95;17.65;;;;;;;;;;5013868;28;20030;-83
2023/01/20 10:50:40;;;;;;;59.05;19.25;;;;;;;;;;5020830;28;20028;-83
2023/01/20 10:53:12;;;;;;;58.45;20.33;;;;;;;;;;5037595;28;20475;-83
2023/01/20 10:58:50;;;;;;;53.70;20.35;;;;;;;;;;5018217;28;20028;-83
2023/01/20 11:01:28;;;;;;;52.40;18.05;;;;;;;;;;5013840;28;20105;-83
2023/01/20 11:03:54;;;;;;;50.80;18.55;;;;;;;;;;5013543;28;20033;-83
2023/01/20 11:09:30;;;;;;;55.00;19.02;;;;;;;;;;5003332;28;20025;-83
2023/01/20 11:11:57;;;;;;;53.90;19.23;;;;;;;;;;5004756;28;20073;-82
2023/01/20 11:14:23;;;;;;;61.25;20.63;;;;;;;;;;4985174;28;20244;-83
2023/01/20 11:16:51;;;;;;;42.95;15.40;;;;;;;;;;5004863;28;20396;-83
2023/01/20 11:19:17;;;;;;;48.42;16.65;;;;;;;;;;5017584;28;20061;-83
2023/01/20 11:21:43;;;;;;;46.83;17.40;;;;;;;;;;5003617;28;20057;-83
2023/01/20 11:27:50;;;;;;;48.10;17.30;;;;;;;;;;4997882;28;20077;-82
2023/01/20 11:30:30;;;;;;;50.80;18.02;;;;;;;;;;4967339;28;20035;-83
2023/01/20 11:33:14;;;;;;;44.87;17.67;;;;;;;;;;4993706;28;20113;-82
2023/01/20 11:35:40;;;;;;;44.30;16.08;;;;;;;;;;5000287;28;20026;-82
2023/01/20 11:38:26;;;;;;;48.35;17.25;;;;;;;;;;4989468;28;20057;-82
2023/01/20 11:43:59;;;;;;;36.45;13.88;;;;;;;;;;5025208;28;20044;-82
2023/01/20 11:46:27;;;;;;;38.65;15.68;;;;;;;;;;5017935;28;20029;-82
2023/01/20 11:49:12;;;;;;;43.67;16.73;;;;;;;;;;5018939;28;20041;-82
2023/01/20 11:51:52;;;;;;;41.08;16.40;;;;;;;;;;5015521;28;20080;-82
2023/01/20 11:54:19;;;;;;;35.08;14.23;;;;;;;;;;5014845;28;20424;-82
2023/01/20 11:56:46;;;;;;;43.13;16.75;;;;;;;;;;5009810;28;20029;-82
2023/01/20 11:59:29;;;;;;;42.65;16.85;;;;;;;;;;4991295;28;20399;-82
2023/01/20 12:01:59;;;;;;;39.95;15.50;;;;;;;;;;5022192;28;20466;-82
2023/01/20 12:04:25;;;;;;;41.47;17.20;;;;;;;;;;4997108;28;20129;-82
2023/01/20 12:06:55;;;;;;;44.58;16.25;;;;;;;;;;4997891;28;20097;-82
2023/01/20 12:09:25;;;;;;;37.75;14.27;;;;;;;;;;4994516;28;20076;-82
2023/01/20 12:12:03;;;;;;;43.47;16.65;;;;;;;;;;5008458;28;20068;-82
2023/01/20 12:14:39;;;;;;;37.72;12.88;;;;;;;;;;4997987;28;20058;-82
2023/01/20 12:17:17;;;;;;;47.60;17.77;;;;;;;;;;4994376;28;20460;-82
2023/01/20 12:19:55;;;;;;;44.13;17.52;;;;;;;;;;4999597;28;20026;-82
2023/01/20 12:22:34;;;;;;;45.28;16.80;;;;;;;;;;5003990;28;20030;-82
2023/01/20 12:25:06;;;;;;;46.88;18.38;;;;;;;;;;4990858;28;20033;-82
2023/01/20 12:27:33;;;;;;;46.55;16.45;;;;;;;;;;4998296;28;20123;-82
2023/01/20 12:30:01;;;;;;;43.70;16.58;;;;;;;;;;4999340;28;20018;-82
2023/01/20 12:32:28;;;;;;;51.67;17.88;;;;;;;;;;5016636;28;20108;-82
2023/01/20 12:34:54;;;;;;;45.90;17.25;;;;;;;;;;5029334;28;20459;-82
2023/01/20 12:37:30;;;;;;;43.50;15.25;;;;;;;;;;4984491;28;20021;-82
2023/01/20 12:40:12;;;;;;;45.47;16.75;;;;;;;;;;5005702;28;20026;-82
2023/01/20 12:42:38;;;;;;;45.47;16.58;;;;;;;;;;5015481;28;20026;-82
2023/01/20 12:45:23;;;;;;;41.00;16.05;;;;;;;;;;4998031;28;20026;-82
2023/01/20 12:48:08;;;;;;;43.88;16.55;;;;;;;;;;4998537;28;20026;-82
2023/01/20 12:50:47;;;;;;;46.78;17.17;;;;;;;;;;5025708;28;20485;-82
2023/01/20 12:53:23;;;;;;;47.63;16.58;;;;;;;;;;5015802;28;20083;-82
2023/01/20 12:56:01;;;;;;;47.92;18.05;;;;;;;;;;5026164;28;20235;-82
2023/01/20 12:58:27;;;;;;;43.85;17.17;;;;;;;;;;4998107;28;20026;-82
2023/01/20 13:01:02;;;;;;;43.35;15.93;;;;;;;;;;5012353;28;20032;-82
2023/01/20 13:03:38;;;;;;;39.80;14.90;;;;;;;;;;5027438;28;20037;-82
2023/01/20 13:06:07;;;;;;;46.25;16.08;;;;;;;;;;5018268;28;20026;-82
2023/01/20 13:08:50;;;;;;;52.22;19.90;;;;;;;;;;5024307;28;20018;-82
2023/01/20 13:11:36;;;;;;;44.17;17.23;;;;;;;;;;5019054;28;20057;-82
2023/01/20 13:14:09;;;;;;;49.65;16.48;;;;;;;;;;5024947;28;20125;-82
2023/01/20 13:16:34;;;;;;;49.15;17.70;;;;;;;;;;5017752;28;20052;-82
2023/01/20 13:19:15;;;;;;;43.13;16.00;;;;;;;;;;5024429;28;20045;-82
2023/01/20 13:21:41;;;;;;;45.33;17.67;;;;;;;;;;4997457;28;20109;-82
2023/01/20 13:24:17;;;;;;;46.13;16.65;;;;;;;;;;5025900;28;20060;-82
2023/01/20 13:26:43;;;;;;;42.67;15.18;;;;;;;;;;5022463;28;20088;-82
2023/01/20 13:29:20;;;;;;;45.92;16.10;;;;;;;;;;5014456;28;20446;-82
2023/01/20 13:31:46;;;;;;;47.47;19.42;;;;;;;;;;5013276;28;20057;-82
2023/01/20 13:34:21;;;;;;;48.85;17.00;;;;;;;;;;5014070;28;20049;-82
2023/01/20 13:37:02;;;;;;;43.30;16.40;;;;;;;;;;5023430;28;20022;-82
2023/01/20 13:39:28;;;;;;;45.58;14.73;;;;;;;;;;4988861;28;20100;-82
2023/01/20 13:42:01;;;;;;;48.75;16.92;;;;;;;;;;5022950;28;20038;-82
2023/01/20 13:44:34;;;;;;;39.85;15.35;;;;;;;;;;5003584;28;20108;-82
2023/01/20 13:47:51;;;;;;;43.60;16.08;;;;;;;;;;4797606;27;8219929;-80
2023/01/20 13:50:30;;;;;;;42.60;16.15;;;;;;;;;;5086314;28;20473;-80
2023/01/20 13:53:12;;;;;;;40.65;15.43;;;;;;;;;;5088540;28;20378;-80
2023/01/20 13:55:42;;;;;;;41.50;14.77;;;;;;;;;;5089435;28;20355;-80
2023/01/20 13:58:32;;;;;;;31.98;12.85;;;;;;;;;;5089984;28;20470;-80
2023/01/20 14:00:59;;;;;;;39.57;13.13;;;;;;;;;;5070495;28;20571;-80
2023/01/20 14:03:26;;;;;;;33.20;13.40;;;;;;;;;;5086115;28;20257;-81
2023/01/20 14:05:58;;;;;;;38.42;14.25;;;;;;;;;;5104002;28;20100;-80
2023/01/20 14:08:25;;;;;;;33.22;11.68;;;;;;;;;;5105117;28;20025;-80
2023/01/20 14:10:51;;;;;;;35.53;13.13;;;;;;;;;;5092209;28;20028;-80
2023/01/20 14:13:21;;;;;;;38.47;15.20;;;;;;;;;;5092116;28;20075;-81
2023/01/20 14:15:47;;;;;;;;;;;;;;;;;;5073004;28;20032;-80
2023/01/20 14:18:13;;;;;;;;;;;;;;;;;;5082206;28;19904;-80
2023/01/20 14:20:44;;;;;;;;;;;;;;;;;;5062383;28;20895;-80
2023/01/20 14:23:10;;;;;;;;;;;;;;;;;;5070395;28;20354;-80
2023/01/20 14:25:35;;;;;;;;;;;;;;;;;;5057792;28;19915;-80
2023/01/20 14:28:01;;;;;;;;;;;;;;;;;;5068938;28;19915;-79
2023/01/20 14:30:27;;;;;;;;;;;;;;;;;;5056639;28;19905;-80
2023/01/20 14:32:53;;;;;;;;;;;;;;;;;;5062937;28;19970;-79
2023/01/20 14:35:19;;;;;;;;;;;;;;;;;;5070503;28;19909;-80
2023/01/20 14:37:45;;;;;;;;;;;;;;;;;;5070275;28;19909;-80
2023/01/20 14:40:11;;;;;;;;;;;;;;;;;;5055554;28;19912;-80
2023/01/20 14:42:38;;;;;;;;;;;;;;;;;;5071222;28;19979;-80
2023/01/20 14:45:04;;;;;;;;;;;;;;;;;;5074419;28;19900;-80
2023/01/20 14:47:30;;;;;;;;;;;;;;;;;;5093161;28;19916;-80
2023/01/20 14:49:56;;;;;;;;;;;;;;;;;;5094777;28;19904;-80
2023/01/20 14:52:22;;;;;;;;;;;;;;;;;;5090929;28;20044;-80
2023/01/20 14:54:50;;;;;;;;;;;;;;;;;;5094341;28;19912;-80
2023/01/20 14:57:16;;;;;;;;;;;;;;;;;;5068588;28;20035;-80
2023/01/20 14:59:42;;;;;;;;;;;;;;;;;;5063606;28;19940;-79
2023/01/20 15:02:08;;;;;;;;;;;;;;;;;;5080035;28;19904;-80
2023/01/20 15:04:34;;;;;;;;;;;;;;;;;;5079278;28;19935;-80
2023/01/20 15:07:00;;;;;;;;;;;;;;;;;;5074761;28;19965;-80
2023/01/20 15:09:26;;;;;;;;;;;;;;;;;;5081181;28;19952;-80
2023/01/20 15:11:52;;;;;;;;;;;;;;;;;;5077817;28;19911;-80
2023/01/20 15:14:19;;;;;;;;;;;;;;;;;;5077744;28;19952;-79